createdAt,value
2016-09-05T00:00:41.085Z,98.81
2016-09-05T00:01:41.730Z,99.1
2016-09-05T00:02:42.370Z,99.48
2016-09-05T00:03:43.004Z,98.91
2016-09-05T00:04:43.655Z,99.29
2016-09-05T00:05:44.293Z,99.63
2016-09-05T00:06:44.961Z,98.91
2016-09-05T00:07:45.622Z,99.38
2016-09-05T00:08:46.314Z,99.29
2016-09-05T00:09:46.986Z,98.91
2016-09-05T00:10:47.663Z,98.91
2016-09-05T00:11:48.307Z,98.96
2016-09-05T00:12:48.926Z,98.81
2016-09-05T00:13:49.552Z,99
2016-09-05T00:14:50.194Z,99
2016-09-05T00:15:50.845Z,99.1
2016-09-05T00:16:51.490Z,99.29
2016-09-05T00:17:52.148Z,99.48
2016-09-05T00:18:52.820Z,99.38
2016-09-05T00:19:53.485Z,99.67
2016-09-05T00:20:54.129Z,99.58
2016-09-05T00:21:54.800Z,99.38
2016-09-05T00:22:55.467Z,99.38
2016-09-05T00:23:56.097Z,99.38
2016-09-05T00:24:56.739Z,98.81
2016-09-05T00:25:57.386Z,99.67
2016-09-05T00:26:58.032Z,98.91
2016-09-05T00:27:58.658Z,99
2016-09-05T00:28:59.296Z,98.81
2016-09-05T00:29:59.922Z,98.91
2016-09-05T00:31:00.569Z,98.81
2016-09-05T00:32:01.221Z,99.77
2016-09-05T00:33:01.874Z,99.58
2016-09-05T00:34:02.498Z,99.48
2016-09-05T00:35:03.155Z,99.19
2016-09-05T00:36:03.817Z,99
2016-09-05T00:37:04.461Z,99
2016-09-05T00:38:05.094Z,98.96
2016-09-05T00:39:05.714Z,99.63
2016-09-05T00:40:06.333Z,99.58
2016-09-05T00:41:06.994Z,99.58
2016-09-05T00:42:07.626Z,99.29
2016-09-05T00:43:08.254Z,99.48
2016-09-05T00:44:08.908Z,99.48
2016-09-05T00:45:09.541Z,99.48
2016-09-05T00:46:10.213Z,99.38
2016-09-05T00:47:10.850Z,99.38
2016-09-05T00:48:11.523Z,99.1
2016-09-05T00:49:12.171Z,98.91
2016-09-05T00:50:12.838Z,99.48
2016-09-05T00:51:13.491Z,99.1
2016-09-05T00:52:14.153Z,99.15
2016-09-05T00:53:14.799Z,99.58
2016-09-05T00:54:15.474Z,99.48
2016-09-05T00:55:16.118Z,99.58
2016-09-05T00:56:16.745Z,99.77
2016-09-05T00:57:17.389Z,99.19
2016-09-05T00:58:18.042Z,99.58
2016-09-05T00:59:18.708Z,99.58
2016-09-05T01:00:19.341Z,99.38
2016-09-05T01:01:20.010Z,99.38
2016-09-05T01:02:20.658Z,99.48
2016-09-05T01:03:21.298Z,99.48
2016-09-05T01:04:21.968Z,99.1
2016-09-05T01:05:22.643Z,99.77
2016-09-05T01:06:23.295Z,99.67
2016-09-05T01:07:23.934Z,99.58
2016-09-05T01:08:24.558Z,99.48
2016-09-05T01:09:25.208Z,99.19
2016-09-05T01:10:25.858Z,99.38
2016-09-05T01:11:26.506Z,99.29
2016-09-05T01:12:27.137Z,99.1
2016-09-05T01:13:27.768Z,99.67
2016-09-05T01:14:28.402Z,99.48
2016-09-05T01:15:29.034Z,99.38
2016-09-05T01:16:29.684Z,99.77
2016-09-05T01:17:30.311Z,99.38
2016-09-05T01:18:30.948Z,99.77
2016-09-05T01:19:31.586Z,99.63
2016-09-05T01:20:32.219Z,99.87
2016-09-05T01:21:32.868Z,99.29
2016-09-05T01:22:33.503Z,99.58
2016-09-05T01:23:34.170Z,99.63
2016-09-05T01:24:34.834Z,99.82
2016-09-05T01:25:35.507Z,99.29
2016-09-05T01:26:36.135Z,99.43
2016-09-05T01:27:36.803Z,99.99
2016-09-05T01:28:37.424Z,99.99
2016-09-05T01:29:38.056Z,99.99
2016-09-05T01:30:38.692Z,99.99
2016-09-05T01:31:39.340Z,99.99
2016-09-05T01:32:40.013Z,99.99
2016-09-05T01:33:40.628Z,99.99
2016-09-05T01:34:41.253Z,99.99
2016-09-05T01:35:41.877Z,99.99
2016-09-05T01:36:42.506Z,99.99
2016-09-05T01:37:43.136Z,99.99
2016-09-05T01:38:43.789Z,99.99
2016-09-05T01:39:44.415Z,99.99
2016-09-05T01:40:45.076Z,99.99
2016-09-05T01:41:45.705Z,99.99
2016-09-05T01:42:46.325Z,99.99
2016-09-05T01:43:46.951Z,99.99
2016-09-05T01:44:47.615Z,99.99
2016-09-05T01:45:48.245Z,99.99
2016-09-05T01:46:48.905Z,99.99
2016-09-05T01:47:49.529Z,99.99
2016-09-05T01:48:50.160Z,99.99
2016-09-05T01:49:50.819Z,99.99
2016-09-05T01:50:51.504Z,99.99
2016-09-05T01:51:52.170Z,99.99
2016-09-05T01:52:52.799Z,99.99
2016-09-05T01:53:53.455Z,99.99
2016-09-05T01:54:54.088Z,99.99
2016-09-05T01:55:54.772Z,99.99
2016-09-05T01:56:55.422Z,99.99
2016-09-05T01:57:56.053Z,99.99
2016-09-05T01:58:56.711Z,99.99
2016-09-05T01:59:57.343Z,99.99
2016-09-05T02:00:57.971Z,99.99
2016-09-05T02:01:58.638Z,99.99
2016-09-05T02:02:59.325Z,99.99
2016-09-05T02:03:59.974Z,99.99
2016-09-05T02:05:00.601Z,99.99
2016-09-05T02:06:01.227Z,99.99
2016-09-05T02:07:01.869Z,99.99
2016-09-05T02:08:02.529Z,99.99
2016-09-05T02:09:03.170Z,99.99
2016-09-05T02:10:03.811Z,99.99
2016-09-05T02:11:04.433Z,99.99
2016-09-05T02:12:05.064Z,99.99
2016-09-05T02:13:05.671Z,99.99
2016-09-05T02:14:06.292Z,99.99
2016-09-05T02:15:06.911Z,99.99
2016-09-05T02:16:07.536Z,99.99
2016-09-05T02:17:08.159Z,99.99
2016-09-05T02:18:08.779Z,99.99
2016-09-05T02:19:09.409Z,99.99
2016-09-05T02:20:10.036Z,99.99
2016-09-05T02:21:10.674Z,99.99
2016-09-05T02:22:11.313Z,99.99
2016-09-05T02:23:11.951Z,99.99
2016-09-05T02:24:12.585Z,99.99
2016-09-05T02:25:13.235Z,99.99
2016-09-05T02:26:13.884Z,99.99
2016-09-05T02:27:14.528Z,99.99
2016-09-05T02:28:15.142Z,99.99
2016-09-05T02:29:15.789Z,99.99
2016-09-05T02:30:16.434Z,99.99
2016-09-05T02:31:17.088Z,99.99
2016-09-05T02:32:17.712Z,99.99
2016-09-05T02:33:18.353Z,99.99
2016-09-05T02:34:18.974Z,99.99
2016-09-05T02:35:19.594Z,99.99
2016-09-05T02:36:20.259Z,99.99
2016-09-05T02:37:20.922Z,99.99
2016-09-05T02:38:21.582Z,99.99
2016-09-05T02:39:22.203Z,99.99
2016-09-05T02:40:22.832Z,99.99
2016-09-05T02:41:23.444Z,99.99
2016-09-05T02:42:24.085Z,99.99
2016-09-05T02:43:24.711Z,99.99
2016-09-05T02:44:25.367Z,99.99
2016-09-05T02:45:26.068Z,99.99
2016-09-05T02:46:26.734Z,99.99
2016-09-05T02:47:27.382Z,99.99
2016-09-05T02:48:28.020Z,99.99
2016-09-05T02:49:28.639Z,99.99
2016-09-05T02:50:29.276Z,99.99
2016-09-05T02:51:29.930Z,99.99
2016-09-05T02:52:30.582Z,99.99
2016-09-05T02:53:31.198Z,99.99
2016-09-05T02:54:31.825Z,99.99
2016-09-05T02:55:32.448Z,99.99
2016-09-05T02:56:33.069Z,99.99
2016-09-05T02:57:33.718Z,99.99
2016-09-05T02:58:34.336Z,99.99
2016-09-05T02:59:34.977Z,99.99
2016-09-05T03:00:35.629Z,99.99
2016-09-05T03:01:36.292Z,99.99
2016-09-05T03:02:36.909Z,99.99
2016-09-05T03:03:37.530Z,99.99
2016-09-05T03:04:38.179Z,99.99
2016-09-05T03:05:38.816Z,99.99
2016-09-05T03:06:39.478Z,99.99
2016-09-05T03:07:40.107Z,99.99
2016-09-05T03:08:40.728Z,99.99
2016-09-05T03:09:41.342Z,99.99
2016-09-05T03:10:41.976Z,99.99
2016-09-05T03:11:42.617Z,99.99
2016-09-05T03:12:43.252Z,99.99
2016-09-05T03:13:43.874Z,99.99
2016-09-05T03:14:44.492Z,99.99
2016-09-05T03:15:45.113Z,99.99
2016-09-05T03:16:45.735Z,99.99
2016-09-05T03:17:46.355Z,99.99
2016-09-05T03:18:46.992Z,99.99
2016-09-05T03:19:47.601Z,99.99
2016-09-05T03:20:48.219Z,99.99
2016-09-05T03:21:48.845Z,99.99
2016-09-05T03:22:49.461Z,99.99
2016-09-05T03:23:50.085Z,99.99
2016-09-05T03:24:50.706Z,99.99
2016-09-05T03:25:51.330Z,99.99
2016-09-05T03:26:51.975Z,99.99
2016-09-05T03:27:52.611Z,99.99
2016-09-05T03:28:53.240Z,99.99
2016-09-05T03:29:53.885Z,99.99
2016-09-05T03:30:54.507Z,99.99
2016-09-05T03:31:55.157Z,99.99
2016-09-05T03:32:55.772Z,99.99
2016-09-05T03:33:56.399Z,99.99
2016-09-05T03:34:57.024Z,99.99
2016-09-05T03:35:57.681Z,99.99
2016-09-05T03:36:58.312Z,99.99
2016-09-05T03:37:58.932Z,99.99
2016-09-05T03:38:59.555Z,99.99
2016-09-05T03:40:00.175Z,99.99
2016-09-05T03:41:00.796Z,99.99
2016-09-05T03:42:01.416Z,99.99
2016-09-05T03:43:02.097Z,99.99
2016-09-05T03:44:02.762Z,99.99
2016-09-05T03:45:03.390Z,99.99
2016-09-05T03:46:04.003Z,99.99
2016-09-05T03:47:04.624Z,99.99
2016-09-05T03:48:05.310Z,99.99
2016-09-05T03:49:05.957Z,99.99
2016-09-05T03:50:06.590Z,99.99
2016-09-05T03:51:07.236Z,99.99
2016-09-05T03:52:07.869Z,99.99
2016-09-05T03:53:08.510Z,99.99
2016-09-05T03:54:09.167Z,99.99
2016-09-05T03:55:09.806Z,99.99
2016-09-05T03:56:10.455Z,99.99
2016-09-05T03:57:11.099Z,99.99
2016-09-05T03:58:11.761Z,99.99
2016-09-05T03:59:12.421Z,99.99
2016-09-05T04:00:13.052Z,99.99
2016-09-05T04:01:13.695Z,99.99
2016-09-05T04:02:14.320Z,99.99
2016-09-05T04:03:14.953Z,99.99
2016-09-05T04:04:15.598Z,99.99
2016-09-05T04:05:16.238Z,99.99
2016-09-05T04:06:16.878Z,99.99
2016-09-05T04:07:17.504Z,99.99
2016-09-05T04:08:18.125Z,99.99
2016-09-05T04:09:18.769Z,99.99
2016-09-05T04:10:19.407Z,99.99
2016-09-05T04:11:20.041Z,99.99
2016-09-05T04:12:20.671Z,99.99
2016-09-05T04:13:21.315Z,99.99
2016-09-05T04:14:21.963Z,99.99
2016-09-05T04:15:22.612Z,99.99
2016-09-05T04:16:23.254Z,99.99
2016-09-05T04:17:23.886Z,99.99
2016-09-05T04:18:24.517Z,99.99
2016-09-05T04:19:25.162Z,99.99
2016-09-05T04:20:25.789Z,99.99
2016-09-05T04:21:26.416Z,99.99
2016-09-05T04:22:27.062Z,99.99
2016-09-05T04:23:27.693Z,99.99
2016-09-05T04:24:28.357Z,99.99
2016-09-05T04:25:29.010Z,99.99
2016-09-05T04:26:29.652Z,99.99
2016-09-05T04:27:30.313Z,99.99
2016-09-05T04:28:30.946Z,99.99
2016-09-05T04:29:31.595Z,99.99
2016-09-05T04:30:32.231Z,99.99
2016-09-05T04:31:32.886Z,99.99
2016-09-05T04:32:33.533Z,99.99
2016-09-05T04:33:34.171Z,99.99
2016-09-05T04:34:34.822Z,99.99
2016-09-05T04:35:35.480Z,99.99
2016-09-05T04:36:36.151Z,99.99
2016-09-05T04:37:36.780Z,99.99
2016-09-05T04:38:37.447Z,99.99
2016-09-05T04:39:38.084Z,99.99
2016-09-05T04:40:38.736Z,99.99
2016-09-05T04:41:39.380Z,99.99
2016-09-05T04:42:40.040Z,99.99
2016-09-05T04:43:40.743Z,99.99
2016-09-05T04:44:41.388Z,99.99
2016-09-05T04:45:42.006Z,99.99
2016-09-05T04:46:42.673Z,99.99
2016-09-05T04:47:43.316Z,99.99
2016-09-05T04:48:43.967Z,99.99
2016-09-05T04:49:44.627Z,99.99
2016-09-05T04:50:45.250Z,99.99
2016-09-05T04:51:45.893Z,99.99
2016-09-05T04:52:46.536Z,99.99
2016-09-05T04:53:47.185Z,99.99
2016-09-05T04:54:47.837Z,99.99
2016-09-05T04:55:48.459Z,99.99
2016-09-05T04:56:49.082Z,99.99
2016-09-05T04:57:49.724Z,99.99
2016-09-05T04:58:50.411Z,99.99
2016-09-05T04:59:51.062Z,99.99
2016-09-05T05:00:51.745Z,99.99
2016-09-05T05:01:52.382Z,99.99
2016-09-05T05:02:53.020Z,99.99
2016-09-05T05:03:53.647Z,99.99
2016-09-05T05:04:54.301Z,99.99
2016-09-05T05:05:54.952Z,99.99
2016-09-05T05:06:55.590Z,99.99
2016-09-05T05:07:56.292Z,99.99
2016-09-05T05:08:56.955Z,99.99
2016-09-05T05:09:57.617Z,99.99
2016-09-05T05:10:58.252Z,99.99
2016-09-05T05:11:58.895Z,99.99
2016-09-05T05:12:59.536Z,99.99
2016-09-05T05:14:00.197Z,99.99
2016-09-05T05:15:00.840Z,99.99
2016-09-05T05:16:01.470Z,99.99
2016-09-05T05:17:02.108Z,99.99
2016-09-05T05:18:02.750Z,99.99
2016-09-05T05:19:03.393Z,99.99
2016-09-05T05:20:04.020Z,99.99
2016-09-05T05:21:04.663Z,99.99
2016-09-05T05:22:05.313Z,99.99
2016-09-05T05:23:05.950Z,99.99
2016-09-05T05:24:06.598Z,99.99
2016-09-05T05:25:07.252Z,99.99
2016-09-05T05:26:07.892Z,99.99
2016-09-05T05:27:08.538Z,99.99
2016-09-05T05:28:09.176Z,99.99
2016-09-05T05:29:09.806Z,99.99
2016-09-05T05:30:10.460Z,99.99
2016-09-05T05:31:11.099Z,99.99
2016-09-05T05:32:11.745Z,99.99
2016-09-05T05:33:12.397Z,99.99
2016-09-05T05:34:13.031Z,99.99
2016-09-05T05:35:13.680Z,99.99
2016-09-05T05:36:14.347Z,99.99
2016-09-05T05:37:14.964Z,99.99
2016-09-05T05:38:15.608Z,99.99
2016-09-05T05:39:16.262Z,99.99
2016-09-05T05:40:16.901Z,99.99
2016-09-05T05:41:17.550Z,99.99
2016-09-05T05:42:18.206Z,99.99
2016-09-05T05:43:18.869Z,99.99
2016-09-05T05:44:19.500Z,99.99
2016-09-05T05:45:20.162Z,99.99
2016-09-05T05:46:20.809Z,99.99
2016-09-05T05:47:21.457Z,99.99
2016-09-05T05:48:22.103Z,99.99
2016-09-05T05:49:22.762Z,99.99
2016-09-05T05:50:23.430Z,99.99
2016-09-05T05:51:24.097Z,99.99
2016-09-05T05:52:24.765Z,99.99
2016-09-05T05:53:25.409Z,99.99
2016-09-05T05:54:26.041Z,99.99
2016-09-05T05:55:26.711Z,99.99
2016-09-05T05:56:27.351Z,99.99
2016-09-05T05:57:27.986Z,99.99
2016-09-05T05:58:28.651Z,99.99
2016-09-05T05:59:29.274Z,99.99
2016-09-05T06:00:29.908Z,99.99
2016-09-05T06:01:30.813Z,99.99
2016-09-05T06:02:31.475Z,99.99
2016-09-05T06:03:32.097Z,99.99
2016-09-05T06:04:32.745Z,99.99
2016-09-05T06:05:33.394Z,99.99
2016-09-05T06:06:34.048Z,99.99
2016-09-05T06:07:34.678Z,99.99
2016-09-05T06:08:35.308Z,99.99
2016-09-05T06:09:35.931Z,99.99
2016-09-05T06:10:36.593Z,99.99
2016-09-05T06:11:37.236Z,99.99
2016-09-05T06:12:37.878Z,99.99
2016-09-05T06:13:38.515Z,99.99
2016-09-05T06:14:39.188Z,99.99
2016-09-05T06:15:39.842Z,99.99
2016-09-05T06:16:40.469Z,99.99
2016-09-05T06:17:41.091Z,99.99
2016-09-05T06:18:41.785Z,99.99
2016-09-05T06:19:42.430Z,99.99
2016-09-05T06:20:43.069Z,99.99
2016-09-05T06:21:43.745Z,99.99
2016-09-05T06:22:44.406Z,99.99
2016-09-05T06:23:45.023Z,99.77
2016-09-05T06:24:45.645Z,99.99
2016-09-05T06:25:46.273Z,99.99
2016-09-05T06:26:46.904Z,99.99
2016-09-05T06:27:47.543Z,99.96
2016-09-05T06:28:48.190Z,99.58
2016-09-05T06:29:48.839Z,99.48
2016-09-05T06:30:49.469Z,99.58
2016-09-05T06:31:50.152Z,99.58
2016-09-05T06:32:50.785Z,99.15
2016-09-05T06:33:51.435Z,99.63
2016-09-05T06:34:52.059Z,99.05
2016-09-05T06:35:52.693Z,98.28
2016-09-05T06:36:53.350Z,98.38
2016-09-05T06:37:53.974Z,98.28
2016-09-05T06:38:54.596Z,98.38
2016-09-05T06:39:55.278Z,98.67
2016-09-05T06:40:56.044Z,97.81
2016-09-05T06:41:56.679Z,97.71
2016-09-05T06:42:57.332Z,98.48
2016-09-05T06:43:58.116Z,98.48
2016-09-05T06:44:58.754Z,98.48
2016-09-05T06:45:59.420Z,98.19
2016-09-05T06:47:00.077Z,98.19
2016-09-05T06:48:00.710Z,97.71
2016-09-05T06:49:01.357Z,97.81
2016-09-05T06:50:01.979Z,97.95
2016-09-05T06:51:02.623Z,98.05
2016-09-05T06:52:03.255Z,98.52
2016-09-05T06:53:03.903Z,98.24
2016-09-05T06:54:04.540Z,98.62
2016-09-05T06:55:05.193Z,98.81
2016-09-05T06:56:05.851Z,98.81
2016-09-05T06:57:06.493Z,98.62
2016-09-05T06:58:07.157Z,98.52
2016-09-05T06:59:07.789Z,97.85
2016-09-05T07:00:08.434Z,97.85
2016-09-05T07:01:09.084Z,98.33
2016-09-05T07:02:09.746Z,98.52
2016-09-05T07:03:10.377Z,99.19
2016-09-05T07:04:10.995Z,98.91
2016-09-05T07:05:11.626Z,99.05
2016-09-05T07:06:12.300Z,99.05
2016-09-05T07:07:12.920Z,99.05
2016-09-05T07:08:13.593Z,99.15
2016-09-05T07:09:14.277Z,98.28
2016-09-05T07:10:14.940Z,98.67
2016-09-05T07:11:15.590Z,98.77
2016-09-05T07:12:16.228Z,98.67
2016-09-05T07:13:16.865Z,98.1
2016-09-05T07:14:17.514Z,98.96
2016-09-05T07:15:18.130Z,98.77
2016-09-05T07:16:18.767Z,98.57
2016-09-05T07:17:19.376Z,98.48
2016-09-05T07:18:19.999Z,98.28
2016-09-05T07:19:20.635Z,98.1
2016-09-05T07:20:21.273Z,97.9
2016-09-05T07:21:21.929Z,98.38
2016-09-05T07:22:22.547Z,98.67
2016-09-05T07:23:23.209Z,98.19
2016-09-05T07:24:23.965Z,98.38
2016-09-05T07:25:25.448Z,98.67
2016-09-05T07:26:26.257Z,97.81
2016-09-05T07:27:26.932Z,97.61
2016-09-05T07:28:27.568Z,97.85
2016-09-05T07:29:28.234Z,97.81
2016-09-05T07:30:28.868Z,97.81
2016-09-05T07:31:29.494Z,97.52
2016-09-05T07:32:30.143Z,98
2016-09-05T07:33:30.780Z,97.81
2016-09-05T07:34:31.410Z,98.57
2016-09-05T07:35:32.077Z,98.19
2016-09-05T07:36:32.777Z,98.67
2016-09-05T07:37:33.407Z,98.38
2016-09-05T07:38:34.034Z,98.67
2016-09-05T07:39:34.699Z,98.48
2016-09-05T07:40:35.365Z,99.05
2016-09-05T07:41:36.002Z,98.86
2016-09-05T07:42:36.669Z,98.67
2016-09-05T07:43:37.294Z,97.81
2016-09-05T07:44:37.936Z,98.67
2016-09-05T07:45:38.583Z,98.28
2016-09-05T07:46:39.221Z,98.57
2016-09-05T07:47:39.859Z,98.67
2016-09-05T07:48:40.509Z,98.48
2016-09-05T07:49:41.165Z,98.67
2016-09-05T07:50:41.805Z,98.67
2016-09-05T07:51:42.464Z,97.9
2016-09-05T07:52:43.088Z,98.19
2016-09-05T07:53:43.713Z,98
2016-09-05T07:54:44.357Z,98
2016-09-05T07:55:45.007Z,97.81
2016-09-05T07:56:45.651Z,98.57
2016-09-05T07:57:46.290Z,98
2016-09-05T07:58:46.917Z,97.81
2016-09-05T07:59:47.551Z,98.38
2016-09-05T08:00:48.199Z,97.9
2016-09-05T08:01:48.827Z,97.52
2016-09-05T08:02:49.443Z,98
2016-09-05T08:03:50.065Z,97.61
2016-09-05T08:04:50.700Z,97.14
2016-09-05T08:05:51.318Z,98.33
2016-09-05T08:06:51.991Z,97.42
2016-09-05T08:07:52.657Z,97.42
2016-09-05T08:08:53.286Z,97.42
2016-09-05T08:09:53.925Z,97.9
2016-09-05T08:10:54.564Z,97.81
2016-09-05T08:11:55.198Z,98.38
2016-09-05T08:12:55.831Z,98.38
2016-09-05T08:13:56.459Z,98.57
2016-09-05T08:14:57.101Z,98.28
2016-09-05T08:15:57.723Z,98.67
2016-09-05T08:16:58.351Z,99.15
2016-09-05T08:17:58.988Z,99.15
2016-09-05T08:18:59.621Z,98.96
2016-09-05T08:20:00.274Z,99.05
2016-09-05T08:21:00.896Z,98.28
2016-09-05T08:22:01.551Z,98.96
2016-09-05T08:23:02.192Z,99.63
2016-09-05T08:24:02.844Z,99.53
2016-09-05T08:25:03.479Z,99.82
2016-09-05T08:26:04.107Z,99.99
2016-09-05T08:27:04.736Z,99.63
2016-09-05T08:28:05.374Z,99.44
2016-09-05T08:29:06.015Z,99.73
2016-09-05T08:30:06.671Z,99.63
2016-09-05T08:31:07.292Z,99.05
2016-09-05T08:32:07.913Z,99.05
2016-09-05T08:33:08.537Z,99.63
2016-09-05T08:34:09.184Z,99.15
2016-09-05T08:35:09.832Z,98.19
2016-09-05T08:36:10.456Z,98.67
2016-09-05T08:37:11.091Z,98.96
2016-09-05T08:38:11.734Z,98.48
2016-09-05T08:39:12.370Z,98.43
2016-09-05T08:40:13.010Z,97.76
2016-09-05T08:41:13.657Z,97.76
2016-09-05T08:42:14.300Z,97.47
2016-09-05T08:43:14.925Z,97.86
2016-09-05T08:44:15.547Z,97.47
2016-09-05T08:45:16.179Z,97.28
2016-09-05T08:46:16.819Z,96.61
2016-09-05T08:47:17.459Z,95.7
2016-09-05T08:48:18.084Z,95.6
2016-09-05T08:49:18.730Z,93.92
2016-09-05T08:50:19.389Z,92.48
2016-09-05T08:51:20.037Z,92.19
2016-09-05T08:52:20.675Z,90.51
2016-09-05T08:53:21.335Z,87.86
2016-09-05T08:54:21.992Z,88.49
2016-09-05T08:55:22.639Z,88.82
2016-09-05T08:56:23.291Z,88.73
2016-09-05T08:57:24.637Z,88.2
2016-09-05T08:58:25.293Z,88.97
2016-09-05T08:59:25.935Z,89.5
2016-09-05T09:00:26.563Z,89.79
2016-09-05T09:01:27.204Z,88.39
2016-09-05T09:02:27.849Z,88.59
2016-09-05T09:03:28.522Z,87.87
2016-09-05T09:04:29.180Z,88.1
2016-09-05T09:05:29.829Z,86.85
2016-09-05T09:06:30.485Z,87.96
2016-09-05T09:07:31.127Z,87.58
2016-09-05T09:08:31.782Z,86.85
2016-09-05T09:09:32.445Z,86.09
2016-09-05T09:10:33.095Z,85.89
2016-09-05T09:11:33.757Z,85.03
2016-09-05T09:12:34.408Z,85.99
2016-09-05T09:13:35.187Z,86.18
2016-09-05T09:14:35.838Z,86.14
2016-09-05T09:15:36.551Z,86.18
2016-09-05T09:16:37.249Z,85.99
2016-09-05T09:17:37.887Z,85.22
2016-09-05T09:18:38.538Z,84.89
2016-09-05T09:19:39.177Z,85.89
2016-09-05T09:20:39.841Z,85.32
2016-09-05T09:21:40.468Z,85.95
2016-09-05T09:22:41.106Z,86.62
2016-09-05T09:23:41.772Z,87.1
2016-09-05T09:24:42.421Z,88.06
2016-09-05T09:25:43.059Z,89.22
2016-09-05T09:26:43.692Z,89.69
2016-09-05T09:27:44.340Z,90.27
2016-09-05T09:28:44.982Z,90.94
2016-09-05T09:29:45.623Z,91.09
2016-09-05T09:30:46.275Z,91.57
2016-09-05T09:31:46.902Z,92.05
2016-09-05T09:32:47.559Z,92.14
2016-09-05T09:33:48.220Z,91.96
2016-09-05T09:34:48.859Z,92.05
2016-09-05T09:35:49.518Z,91.96
2016-09-05T09:36:50.155Z,91.96
2016-09-05T09:37:50.772Z,91.66
2016-09-05T09:38:51.433Z,92.33
2016-09-05T09:39:52.056Z,91.38
2016-09-05T09:40:52.680Z,90.66
2016-09-05T09:41:53.340Z,89.02
2016-09-05T09:42:53.973Z,88.35
2016-09-05T09:43:54.600Z,88.11
2016-09-05T09:44:55.224Z,89.94
2016-09-05T09:45:55.902Z,89.5
2016-09-05T09:46:56.565Z,89.4
2016-09-05T09:47:57.177Z,88.83
2016-09-05T09:48:57.898Z,88.93
2016-09-05T09:49:58.479Z,88.35
2016-09-05T09:50:59.142Z,87.77
2016-09-05T09:51:59.774Z,86.72
2016-09-05T09:53:00.408Z,86.91
2016-09-05T09:54:01.052Z,87.77
2016-09-05T09:55:01.697Z,88.16
2016-09-05T09:56:02.341Z,88.35
2016-09-05T09:57:02.980Z,88.16
2016-09-05T09:58:03.649Z,88.49
2016-09-05T09:59:04.302Z,88.69
2016-09-05T10:00:04.953Z,88.88
2016-09-05T10:01:05.570Z,89.26
2016-09-05T10:02:06.260Z,89.07
2016-09-05T10:03:06.914Z,89.55
2016-09-05T10:04:07.561Z,89.36
2016-09-05T10:05:08.203Z,89.94
2016-09-05T10:06:08.829Z,89.46
2016-09-05T10:07:09.451Z,89.36
2016-09-05T10:08:10.071Z,89.17
2016-09-05T10:09:10.711Z,89.65
2016-09-05T10:10:11.345Z,89.36
2016-09-05T10:11:11.977Z,89.07
2016-09-05T10:12:12.630Z,90.13
2016-09-05T10:13:13.270Z,89.26
2016-09-05T10:14:13.974Z,89.84
2016-09-05T10:15:14.664Z,88.98
2016-09-05T10:16:15.299Z,90.13
2016-09-05T10:17:15.938Z,89.94
2016-09-05T10:18:16.587Z,88.88
2016-09-05T10:19:17.243Z,88.31
2016-09-05T10:20:17.888Z,88.98
2016-09-05T10:21:18.552Z,88.88
2016-09-05T10:22:19.210Z,88.21
2016-09-05T10:23:19.866Z,88.25
2016-09-05T10:24:20.518Z,88.35
2016-09-05T10:25:21.159Z,87.77
2016-09-05T10:26:21.815Z,87.1
2016-09-05T10:27:22.499Z,86.72
2016-09-05T10:28:23.126Z,86.43
2016-09-05T10:29:23.787Z,85.95
2016-09-05T10:30:24.446Z,84.89
2016-09-05T10:31:25.096Z,84.7
2016-09-05T10:32:25.753Z,85.08
2016-09-05T10:33:26.386Z,84.12
2016-09-05T10:34:27.025Z,83.93
2016-09-05T10:35:27.653Z,83.4
2016-09-05T10:36:28.270Z,83.54
2016-09-05T10:37:28.944Z,84.03
2016-09-05T10:38:29.690Z,83.93
2016-09-05T10:39:30.332Z,84.12
2016-09-05T10:40:30.980Z,84.22
2016-09-05T10:41:31.653Z,84.6
2016-09-05T10:42:32.284Z,85.47
2016-09-05T10:43:32.917Z,84.89
2016-09-05T10:44:33.568Z,85.47
2016-09-05T10:45:34.189Z,85.75
2016-09-05T10:46:34.839Z,86.1
2016-09-05T10:47:35.488Z,86.48
2016-09-05T10:48:36.122Z,86.68
2016-09-05T10:49:36.748Z,87.05
2016-09-05T10:50:37.370Z,87.05
2016-09-05T10:51:38.012Z,86.96
2016-09-05T10:52:38.640Z,86.91
2016-09-05T10:53:39.296Z,87.35
2016-09-05T10:54:39.912Z,87.35
2016-09-05T10:55:40.558Z,86.38
2016-09-05T10:56:41.200Z,86.38
2016-09-05T10:57:41.847Z,86.77
2016-09-05T10:58:42.494Z,86.19
2016-09-05T10:59:43.119Z,87.05
2016-09-05T11:00:43.762Z,86.68
2016-09-05T11:01:44.424Z,86.77
2016-09-05T11:02:45.062Z,86.81
2016-09-05T11:03:45.682Z,87.1
2016-09-05T11:04:46.332Z,87.19
2016-09-05T11:05:46.965Z,86.62
2016-09-05T11:06:47.604Z,86.43
2016-09-05T11:07:48.248Z,86.43
2016-09-05T11:08:48.867Z,85.85
2016-09-05T11:09:49.493Z,85.28
2016-09-05T11:10:50.136Z,85.85
2016-09-05T11:11:50.793Z,85.08
2016-09-05T11:12:51.461Z,85.08
2016-09-05T11:13:52.097Z,84.99
2016-09-05T11:14:52.728Z,84.8
2016-09-05T11:15:53.378Z,84.26
2016-09-05T11:16:53.997Z,84.22
2016-09-05T11:17:54.628Z,84.07
2016-09-05T11:18:55.289Z,83.93
2016-09-05T11:19:55.972Z,84.26
2016-09-05T11:20:56.618Z,84.36
2016-09-05T11:21:57.261Z,84.26
2016-09-05T11:22:57.883Z,84.55
2016-09-05T11:23:58.564Z,84.36
2016-09-05T11:24:59.496Z,84.45
2016-09-05T11:26:00.143Z,84.17
2016-09-05T11:27:00.784Z,84.07
2016-09-05T11:28:01.550Z,84.07
2016-09-05T11:29:02.180Z,83.78
2016-09-05T11:30:02.843Z,83.49
2016-09-05T11:31:03.536Z,84.36
2016-09-05T11:32:04.186Z,84.31
2016-09-05T11:33:04.848Z,84.84
2016-09-05T11:34:05.495Z,84.89
2016-09-05T11:35:06.130Z,84.74
2016-09-05T11:36:06.779Z,85.51
2016-09-05T11:37:07.436Z,85.22
2016-09-05T11:38:08.116Z,85.8
2016-09-05T11:39:08.801Z,86.38
2016-09-05T11:40:09.510Z,85.51
2016-09-05T11:41:10.144Z,85.71
2016-09-05T11:42:10.806Z,86.33
2016-09-05T11:43:11.443Z,85.99
2016-09-05T11:44:12.091Z,85.8
2016-09-05T11:45:12.772Z,85.32
2016-09-05T11:46:13.423Z,83.59
2016-09-05T11:47:14.081Z,83.45
2016-09-05T11:48:14.737Z,83.59
2016-09-05T11:49:15.417Z,83.54
2016-09-05T11:50:16.069Z,83.54
2016-09-05T11:51:16.695Z,83.49
2016-09-05T11:52:17.335Z,83.3
2016-09-05T11:53:18.123Z,82.63
2016-09-05T11:54:18.775Z,82.82
2016-09-05T11:55:19.495Z,83.2
2016-09-05T11:56:20.155Z,83.01
2016-09-05T11:57:20.770Z,82.24
2016-09-05T11:58:21.409Z,82.49
2016-09-05T11:59:22.053Z,82.53
2016-09-05T12:00:22.717Z,82.82
2016-09-05T12:01:23.385Z,81.09
2016-09-05T12:02:24.003Z,80.22
2016-09-05T12:03:24.656Z,80.32
2016-09-05T12:04:25.296Z,80.9
2016-09-05T12:05:25.950Z,81.19
2016-09-05T12:06:26.586Z,80.13
2016-09-05T12:07:27.238Z,80.8
2016-09-05T12:08:27.974Z,80.42
2016-09-05T12:09:28.608Z,80.8
2016-09-05T12:10:29.263Z,79.84
2016-09-05T12:11:29.915Z,79.84
2016-09-05T12:12:30.551Z,80.22
2016-09-05T12:13:31.214Z,80.22
2016-09-05T12:14:31.849Z,80.51
2016-09-05T12:15:32.491Z,80.61
2016-09-05T12:16:33.134Z,80.42
2016-09-05T12:17:33.787Z,81.09
2016-09-05T12:18:34.407Z,81.67
2016-09-05T12:19:35.063Z,81.57
2016-09-05T12:20:35.709Z,80.71
2016-09-05T12:21:36.342Z,80.51
2016-09-05T12:22:37.009Z,80.42
2016-09-05T12:23:37.647Z,79.75
2016-09-05T12:24:38.367Z,78.45
2016-09-05T12:25:39.032Z,77.59
2016-09-05T12:26:39.666Z,78.4
2016-09-05T12:27:40.303Z,78.11
2016-09-05T12:28:40.934Z,78.3
2016-09-05T12:29:41.568Z,78.55
2016-09-05T12:30:42.210Z,78.69
2016-09-05T12:31:42.837Z,78.84
2016-09-05T12:32:43.467Z,78.4
2016-09-05T12:33:44.092Z,78.27
2016-09-05T12:34:44.740Z,78.36
2016-09-05T12:35:45.382Z,79.13
2016-09-05T12:36:46.042Z,79.32
2016-09-05T12:37:46.665Z,79.71
2016-09-05T12:38:47.367Z,79.13
2016-09-05T12:39:47.997Z,79.71
2016-09-05T12:40:48.647Z,79.9
2016-09-05T12:41:49.296Z,79.99
2016-09-05T12:42:49.921Z,80.38
2016-09-05T12:43:50.555Z,79.9
2016-09-05T12:44:51.196Z,79.71
2016-09-05T12:45:51.852Z,80.28
2016-09-05T12:46:52.484Z,80.09
2016-09-05T12:47:53.125Z,80.47
2016-09-05T12:48:53.750Z,81.05
2016-09-05T12:49:54.390Z,80.86
2016-09-05T12:50:55.049Z,80.76
2016-09-05T12:51:55.689Z,81.05
2016-09-05T12:52:56.324Z,81.15
2016-09-05T12:53:56.946Z,81.15
2016-09-05T12:54:57.596Z,81.43
2016-09-05T12:55:58.232Z,81.72
2016-09-05T12:56:58.879Z,81.34
2016-09-05T12:57:59.509Z,81.34
2016-09-05T12:59:00.224Z,81.15
2016-09-05T13:00:00.920Z,81.43
2016-09-05T13:01:01.551Z,81.24
2016-09-05T13:02:02.184Z,80.86
2016-09-05T13:03:02.824Z,80.71